sensor_id;sensor_type;location;lat;lon;timestamp;P1;durP1;ratioP1;P2;durP2;ratioP2
53034;SDS011;38923;53.236;6.506;2022-07-06T00:00:05;3.10;;;0.80;;
53034;SDS011;38923;53.236;6.506;2022-07-06T00:02:31;5.18;;;0.70;;
53034;SDS011;38923;53.236;6.506;2022-07-06T00:04:57;4.43;;;1.05;;
53034;SDS011;38923;53.236;6.506;2022-07-06T00:07:23;5.63;;;0.80;;
53034;SDS011;38923;53.236;6.506;2022-07-06T00:09:49;3.00;;;0.90;;
53034;SDS011;38923;53.236;6.506;2022-07-06T00:12:15;4.55;;;1.10;;
53034;SDS011;38923;53.236;6.506;2022-07-06T00:27:00;8.93;;;1.17;;
53034;SDS011;38923;53.236;6.506;2022-07-06T00:29:26;4.47;;;1.20;;
53034;SDS011;38923;53.236;6.506;2022-07-06T00:34:43;4.45;;;1.35;;
53034;SDS011;38923;53.236;6.506;2022-07-06T00:37:08;5.93;;;1.10;;
53034;SDS011;38923;53.236;6.506;2022-07-06T00:39:34;8.88;;;1.20;;
53034;SDS011;38923;53.236;6.506;2022-07-06T00:42:00;3.47;;;1.00;;
53034;SDS011;38923;53.236;6.506;2022-07-06T00:44:26;6.45;;;1.45;;
53034;SDS011;38923;53.236;6.506;2022-07-06T00:46:52;5.30;;;1.30;;
53034;SDS011;38923;53.236;6.506;2022-07-06T00:49:17;2.65;;;0.90;;
53034;SDS011;38923;53.236;6.506;2022-07-06T00:52:02;5.00;;;1.40;;
53034;SDS011;38923;53.236;6.506;2022-07-06T00:54:29;6.10;;;1.15;;
53034;SDS011;38923;53.236;6.506;2022-07-06T00:56:56;4.40;;;1.13;;
53034;SDS011;38923;53.236;6.506;2022-07-06T00:59:23;6.72;;;1.13;;
53034;SDS011;38923;53.236;6.506;2022-07-06T01:01:49;6.85;;;1.30;;
53034;SDS011;38923;53.236;6.506;2022-07-06T01:04:15;9.60;;;1.50;;
53034;SDS011;38923;53.236;6.506;2022-07-06T01:06:41;3.60;;;1.00;;
53034;SDS011;38923;53.236;6.506;2022-07-06T01:09:08;5.07;;;1.38;;
53034;SDS011;38923;53.236;6.506;2022-07-06T01:11:34;4.43;;;1.10;;
53034;SDS011;38923;53.236;6.506;2022-07-06T01:13:59;6.43;;;1.48;;
53034;SDS011;38923;53.236;6.506;2022-07-06T01:16:26;5.40;;;1.50;;
53034;SDS011;38923;53.236;6.506;2022-07-06T01:18:52;3.55;;;1.20;;
53034;SDS011;38923;53.236;6.506;2022-07-06T01:21:17;4.85;;;1.30;;
53034;SDS011;38923;53.236;6.506;2022-07-06T01:23:44;5.15;;;1.25;;
53034;SDS011;38923;53.236;6.506;2022-07-06T01:26:15;4.95;;;1.33;;
53034;SDS011;38923;53.236;6.506;2022-07-06T01:28:45;4.25;;;1.42;;
53034;SDS011;38923;53.236;6.506;2022-07-06T01:31:16;4.15;;;1.52;;
53034;SDS011;38923;53.236;6.506;2022-07-06T01:33:51;4.93;;;1.27;;
53034;SDS011;38923;53.236;6.506;2022-07-06T01:36:19;3.90;;;1.23;;
53034;SDS011;38923;53.236;6.506;2022-07-06T01:38:47;8.30;;;1.48;;
53034;SDS011;38923;53.236;6.506;2022-07-06T01:41:23;5.28;;;1.08;;
53034;SDS011;38923;53.236;6.506;2022-07-06T01:43:49;6.72;;;0.90;;
53034;SDS011;38923;53.236;6.506;2022-07-06T01:46:15;6.88;;;0.80;;
53034;SDS011;38923;53.236;6.506;2022-07-06T01:48:41;5.28;;;0.98;;
53034;SDS011;38923;53.236;6.506;2022-07-06T01:51:07;2.67;;;0.85;;
53034;SDS011;38923;53.236;6.506;2022-07-06T01:53:33;5.60;;;0.88;;
53034;SDS011;38923;53.236;6.506;2022-07-06T01:55:59;3.08;;;0.68;;
53034;SDS011;38923;53.236;6.506;2022-07-06T01:58:25;4.13;;;0.80;;
53034;SDS011;38923;53.236;6.506;2022-07-06T02:00:51;5.82;;;1.05;;
53034;SDS011;38923;53.236;6.506;2022-07-06T02:03:16;9.13;;;0.90;;
53034;SDS011;38923;53.236;6.506;2022-07-06T02:05:42;6.35;;;0.93;;
53034;SDS011;38923;53.236;6.506;2022-07-06T02:08:08;6.03;;;0.90;;
53034;SDS011;38923;53.236;6.506;2022-07-06T02:10:34;5.93;;;1.30;;
53034;SDS011;38923;53.236;6.506;2022-07-06T02:12:59;3.50;;;0.88;;
53034;SDS011;38923;53.236;6.506;2022-07-06T02:15:25;4.07;;;0.80;;
53034;SDS011;38923;53.236;6.506;2022-07-06T02:17:51;6.18;;;1.10;;
53034;SDS011;38923;53.236;6.506;2022-07-06T02:20:16;5.80;;;0.98;;
53034;SDS011;38923;53.236;6.506;2022-07-06T02:22:42;3.67;;;0.90;;
53034;SDS011;38923;53.236;6.506;2022-07-06T02:25:08;8.30;;;1.10;;
53034;SDS011;38923;53.236;6.506;2022-07-06T02:27:34;3.67;;;1.00;;
53034;SDS011;38923;53.236;6.506;2022-07-06T02:29:59;6.28;;;1.00;;
53034;SDS011;38923;53.236;6.506;2022-07-06T02:32:25;8.98;;;1.33;;
53034;SDS011;38923;53.236;6.506;2022-07-06T02:34:51;2.42;;;1.10;;
53034;SDS011;38923;53.236;6.506;2022-07-06T02:37:17;4.13;;;1.02;;
53034;SDS011;38923;53.236;6.506;2022-07-06T02:39:44;6.22;;;1.23;;
53034;SDS011;38923;53.236;6.506;2022-07-06T02:42:10;5.43;;;1.13;;
53034;SDS011;38923;53.236;6.506;2022-07-06T02:44:36;4.13;;;1.40;;
53034;SDS011;38923;53.236;6.506;2022-07-06T02:47:02;4.78;;;1.30;;
53034;SDS011;38923;53.236;6.506;2022-07-06T02:49:28;9.60;;;1.52;;
53034;SDS011;38923;53.236;6.506;2022-07-06T02:51:53;4.63;;;1.20;;
53034;SDS011;38923;53.236;6.506;2022-07-06T02:54:20;5.50;;;1.50;;
53034;SDS011;38923;53.236;6.506;2022-07-06T02:56:45;8.75;;;1.73;;
53034;SDS011;38923;53.236;6.506;2022-07-06T02:59:16;4.88;;;1.40;;
53034;SDS011;38923;53.236;6.506;2022-07-06T03:01:42;6.55;;;1.55;;
53034;SDS011;38923;53.236;6.506;2022-07-06T03:04:07;12.85;;;1.50;;
53034;SDS011;38923;53.236;6.506;2022-07-06T03:06:33;4.25;;;1.52;;
53034;SDS011;38923;53.236;6.506;2022-07-06T03:08:59;6.53;;;1.60;;
53034;SDS011;38923;53.236;6.506;2022-07-06T03:11:25;6.75;;;1.58;;
53034;SDS011;38923;53.236;6.506;2022-07-06T03:13:51;3.78;;;1.27;;
53034;SDS011;38923;53.236;6.506;2022-07-06T03:16:17;9.85;;;1.90;;
53034;SDS011;38923;53.236;6.506;2022-07-06T03:18:43;5.63;;;1.60;;
53034;SDS011;38923;53.236;6.506;2022-07-06T03:21:08;6.07;;;1.45;;
53034;SDS011;38923;53.236;6.506;2022-07-06T03:23:34;4.13;;;1.60;;
53034;SDS011;38923;53.236;6.506;2022-07-06T03:26:00;4.72;;;1.35;;
53034;SDS011;38923;53.236;6.506;2022-07-06T03:28:26;5.60;;;1.35;;
53034;SDS011;38923;53.236;6.506;2022-07-06T03:30:51;7.00;;;1.75;;
53034;SDS011;38923;53.236;6.506;2022-07-06T03:33:17;3.35;;;1.00;;
53034;SDS011;38923;53.236;6.506;2022-07-06T03:35:43;7.00;;;1.30;;
53034;SDS011;38923;53.236;6.506;2022-07-06T03:38:09;4.10;;;1.17;;
53034;SDS011;38923;53.236;6.506;2022-07-06T03:40:34;5.55;;;1.20;;
53034;SDS011;38923;53.236;6.506;2022-07-06T03:43:00;8.02;;;1.40;;
53034;SDS011;38923;53.236;6.506;2022-07-06T03:45:26;9.90;;;1.25;;
53034;SDS011;38923;53.236;6.506;2022-07-06T03:47:52;8.35;;;1.20;;
53034;SDS011;38923;53.236;6.506;2022-07-06T03:50:17;6.75;;;1.25;;
53034;SDS011;38923;53.236;6.506;2022-07-06T03:52:43;5.10;;;1.33;;
53034;SDS011;38923;53.236;6.506;2022-07-06T03:55:09;9.13;;;1.90;;
53034;SDS011;38923;53.236;6.506;2022-07-06T03:57:36;4.40;;;1.55;;
53034;SDS011;38923;53.236;6.506;2022-07-06T04:00:03;6.30;;;1.20;;
53034;SDS011;38923;53.236;6.506;2022-07-06T04:02:29;6.57;;;1.42;;
53034;SDS011;38923;53.236;6.506;2022-07-06T04:04:55;6.63;;;1.13;;
53034;SDS011;38923;53.236;6.506;2022-07-06T04:07:21;3.78;;;1.17;;
53034;SDS011;38923;53.236;6.506;2022-07-06T04:09:47;2.97;;;1.10;;
53034;SDS011;38923;53.236;6.506;2022-07-06T04:12:12;4.57;;;1.38;;
53034;SDS011;38923;53.236;6.506;2022-07-06T04:14:38;6.32;;;1.45;;
53034;SDS011;38923;53.236;6.506;2022-07-06T04:17:04;5.57;;;1.40;;
53034;SDS011;38923;53.236;6.506;2022-07-06T04:19:48;5.97;;;1.40;;
53034;SDS011;38923;53.236;6.506;2022-07-06T04:22:14;5.03;;;1.20;;
53034;SDS011;38923;53.236;6.506;2022-07-06T04:24:40;3.55;;;1.10;;
53034;SDS011;38923;53.236;6.506;2022-07-06T04:27:07;7.13;;;1.55;;
53034;SDS011;38923;53.236;6.506;2022-07-06T04:29:32;4.10;;;1.02;;
53034;SDS011;38923;53.236;6.506;2022-07-06T04:31:58;4.03;;;1.23;;
53034;SDS011;38923;53.236;6.506;2022-07-06T04:34:24;4.40;;;1.17;;
53034;SDS011;38923;53.236;6.506;2022-07-06T04:36:50;3.50;;;0.90;;
53034;SDS011;38923;53.236;6.506;2022-07-06T04:39:15;5.65;;;1.00;;
53034;SDS011;38923;53.236;6.506;2022-07-06T04:41:41;2.53;;;0.60;;
53034;SDS011;38923;53.236;6.506;2022-07-06T04:44:07;2.65;;;0.70;;
53034;SDS011;38923;53.236;6.506;2022-07-06T04:46:32;3.17;;;0.57;;
53034;SDS011;38923;53.236;6.506;2022-07-06T04:48:58;1.55;;;0.50;;
53034;SDS011;38923;53.236;6.506;2022-07-06T04:51:24;3.58;;;0.50;;
53034;SDS011;38923;53.236;6.506;2022-07-06T04:53:50;3.53;;;0.40;;
53034;SDS011;38923;53.236;6.506;2022-07-06T04:56:15;6.35;;;0.60;;
53034;SDS011;38923;53.236;6.506;2022-07-06T04:58:41;3.47;;;0.68;;
53034;SDS011;38923;53.236;6.506;2022-07-06T05:01:07;2.20;;;0.28;;
53034;SDS011;38923;53.236;6.506;2022-07-06T05:03:36;5.20;;;0.52;;
53034;SDS011;38923;53.236;6.506;2022-07-06T05:06:05;6.15;;;0.60;;
53034;SDS011;38923;53.236;6.506;2022-07-06T05:08:32;4.75;;;0.70;;
53034;SDS011;38923;53.236;6.506;2022-07-06T05:11:01;3.40;;;0.50;;
53034;SDS011;38923;53.236;6.506;2022-07-06T05:13:30;4.53;;;0.70;;
53034;SDS011;38923;53.236;6.506;2022-07-06T05:15:55;1.77;;;0.50;;
53034;SDS011;38923;53.236;6.506;2022-07-06T05:18:21;4.93;;;0.47;;
53034;SDS011;38923;53.236;6.506;2022-07-06T05:20:48;4.40;;;0.43;;
53034;SDS011;38923;53.236;6.506;2022-07-06T05:23:14;4.55;;;0.75;;
53034;SDS011;38923;53.236;6.506;2022-07-06T05:25:40;2.97;;;0.60;;
53034;SDS011;38923;53.236;6.506;2022-07-06T05:28:06;3.72;;;0.60;;
53034;SDS011;38923;53.236;6.506;2022-07-06T05:30:31;5.20;;;0.80;;
53034;SDS011;38923;53.236;6.506;2022-07-06T05:32:57;7.43;;;0.95;;
53034;SDS011;38923;53.236;6.506;2022-07-06T05:35:23;6.53;;;1.05;;
53034;SDS011;38923;53.236;6.506;2022-07-06T05:37:49;3.45;;;0.82;;
53034;SDS011;38923;53.236;6.506;2022-07-06T05:40:14;4.68;;;1.20;;
53034;SDS011;38923;53.236;6.506;2022-07-06T05:42:40;6.75;;;0.77;;
53034;SDS011;38923;53.236;6.506;2022-07-06T05:45:09;6.82;;;0.70;;
53034;SDS011;38923;53.236;6.506;2022-07-06T05:47:35;3.75;;;0.70;;
53034;SDS011;38923;53.236;6.506;2022-07-06T05:50:19;3.78;;;0.75;;
53034;SDS011;38923;53.236;6.506;2022-07-06T05:52:55;7.43;;;0.90;;
53034;SDS011;38923;53.236;6.506;2022-07-06T05:55:25;7.88;;;1.02;;
53034;SDS011;38923;53.236;6.506;2022-07-06T05:57:52;5.20;;;0.90;;
53034;SDS011;38923;53.236;6.506;2022-07-06T06:03:12;5.00;;;0.98;;
53034;SDS011;38923;53.236;6.506;2022-07-06T06:05:38;4.93;;;0.75;;
53034;SDS011;38923;53.236;6.506;2022-07-06T06:08:03;7.13;;;0.90;;
53034;SDS011;38923;53.236;6.506;2022-07-06T06:10:29;3.30;;;0.88;;
53034;SDS011;38923;53.236;6.506;2022-07-06T06:12:57;6.53;;;0.98;;
53034;SDS011;38923;53.236;6.506;2022-07-06T06:15:22;4.70;;;0.77;;
53034;SDS011;38923;53.236;6.506;2022-07-06T06:17:50;9.45;;;0.70;;
53034;SDS011;38923;53.236;6.506;2022-07-06T06:20:16;6.35;;;1.02;;
53034;SDS011;38923;53.236;6.506;2022-07-06T06:22:52;3.13;;;0.75;;
53034;SDS011;38923;53.236;6.506;2022-07-06T06:25:21;6.95;;;1.35;;
53034;SDS011;38923;53.236;6.506;2022-07-06T06:27:54;5.60;;;1.08;;
53034;SDS011;38923;53.236;6.506;2022-07-06T06:30:20;7.78;;;0.60;;
53034;SDS011;38923;53.236;6.506;2022-07-06T06:32:45;4.40;;;0.70;;
53034;SDS011;38923;53.236;6.506;2022-07-06T06:35:11;7.63;;;0.93;;
53034;SDS011;38923;53.236;6.506;2022-07-06T06:37:37;3.78;;;0.80;;
53034;SDS011;38923;53.236;6.506;2022-07-06T06:40:07;5.63;;;1.15;;
53034;SDS011;38923;53.236;6.506;2022-07-06T06:42:37;8.95;;;0.80;;
53034;SDS011;38923;53.236;6.506;2022-07-06T06:45:03;6.82;;;0.80;;
53034;SDS011;38923;53.236;6.506;2022-07-06T06:47:30;3.00;;;0.80;;
53034;SDS011;38923;53.236;6.506;2022-07-06T06:49:55;4.60;;;0.63;;
53034;SDS011;38923;53.236;6.506;2022-07-06T06:52:21;4.90;;;1.27;;
53034;SDS011;38923;53.236;6.506;2022-07-06T06:54:47;6.32;;;0.70;;
53034;SDS011;38923;53.236;6.506;2022-07-06T06:57:13;7.50;;;0.90;;
53034;SDS011;38923;53.236;6.506;2022-07-06T06:59:38;5.65;;;0.80;;
53034;SDS011;38923;53.236;6.506;2022-07-06T07:02:04;4.72;;;1.00;;
53034;SDS011;38923;53.236;6.506;2022-07-06T07:04:31;1.73;;;0.70;;
53034;SDS011;38923;53.236;6.506;2022-07-06T07:06:56;6.57;;;0.98;;
53034;SDS011;38923;53.236;6.506;2022-07-06T07:09:22;6.75;;;0.90;;
53034;SDS011;38923;53.236;6.506;2022-07-06T07:11:48;4.57;;;0.60;;
53034;SDS011;38923;53.236;6.506;2022-07-06T07:14:14;4.40;;;0.52;;
53034;SDS011;38923;53.236;6.506;2022-07-06T07:16:40;11.27;;;0.95;;
53034;SDS011;38923;53.236;6.506;2022-07-06T07:19:05;4.85;;;0.68;;
53034;SDS011;38923;53.236;6.506;2022-07-06T07:21:31;8.25;;;0.75;;
53034;SDS011;38923;53.236;6.506;2022-07-06T07:23:57;5.40;;;0.82;;
53034;SDS011;38923;53.236;6.506;2022-07-06T07:26:23;4.68;;;0.60;;
53034;SDS011;38923;53.236;6.506;2022-07-06T07:28:49;4.18;;;0.75;;
53034;SDS011;38923;53.236;6.506;2022-07-06T07:31:14;6.78;;;0.60;;
53034;SDS011;38923;53.236;6.506;2022-07-06T07:33:40;6.15;;;0.40;;
53034;SDS011;38923;53.236;6.506;2022-07-06T07:36:06;8.90;;;0.95;;
53034;SDS011;38923;53.236;6.506;2022-07-06T07:38:32;5.03;;;0.50;;
53034;SDS011;38923;53.236;6.506;2022-07-06T07:40:58;3.95;;;0.43;;
53034;SDS011;38923;53.236;6.506;2022-07-06T07:43:24;4.15;;;0.77;;
53034;SDS011;38923;53.236;6.506;2022-07-06T07:45:50;5.47;;;0.55;;
53034;SDS011;38923;53.236;6.506;2022-07-06T07:48:16;5.63;;;0.60;;
53034;SDS011;38923;53.236;6.506;2022-07-06T07:50:42;6.90;;;0.82;;
53034;SDS011;38923;53.236;6.506;2022-07-06T07:53:08;4.60;;;0.77;;
53034;SDS011;38923;53.236;6.506;2022-07-06T07:55:33;4.15;;;0.38;;
53034;SDS011;38923;53.236;6.506;2022-07-06T07:57:59;2.47;;;0.30;;
53034;SDS011;38923;53.236;6.506;2022-07-06T08:00:25;3.75;;;0.43;;
53034;SDS011;38923;53.236;6.506;2022-07-06T08:02:53;2.30;;;0.30;;
53034;SDS011;38923;53.236;6.506;2022-07-06T08:05:19;5.20;;;0.50;;
53034;SDS011;38923;53.236;6.506;2022-07-06T08:07:45;2.22;;;0.20;;
53034;SDS011;38923;53.236;6.506;2022-07-06T08:10:11;2.72;;;0.30;;
53034;SDS011;38923;53.236;6.506;2022-07-06T08:12:37;4.03;;;0.43;;
53034;SDS011;38923;53.236;6.506;2022-07-06T08:15:03;0.82;;;0.20;;
53034;SDS011;38923;53.236;6.506;2022-07-06T08:17:30;2.05;;;0.28;;
53034;SDS011;38923;53.236;6.506;2022-07-06T08:19:56;5.13;;;1.00;;
53034;SDS011;38923;53.236;6.506;2022-07-06T08:22:22;3.22;;;0.35;;
53034;SDS011;38923;53.236;6.506;2022-07-06T08:24:48;4.75;;;0.52;;
53034;SDS011;38923;53.236;6.506;2022-07-06T08:27:14;1.75;;;0.28;;
53034;SDS011;38923;53.236;6.506;2022-07-06T08:29:39;3.58;;;0.40;;
53034;SDS011;38923;53.236;6.506;2022-07-06T08:32:05;4.13;;;0.40;;
53034;SDS011;38923;53.236;6.506;2022-07-06T08:34:31;6.43;;;0.50;;
53034;SDS011;38923;53.236;6.506;2022-07-06T08:36:57;1.83;;;0.20;;
53034;SDS011;38923;53.236;6.506;2022-07-06T08:39:23;3.20;;;0.30;;
53034;SDS011;38923;53.236;6.506;2022-07-06T08:41:49;3.28;;;0.47;;
53034;SDS011;38923;53.236;6.506;2022-07-06T08:44:17;5.45;;;0.50;;
53034;SDS011;38923;53.236;6.506;2022-07-06T08:46:43;3.35;;;0.45;;
53034;SDS011;38923;53.236;6.506;2022-07-06T08:49:15;2.47;;;0.40;;
53034;SDS011;38923;53.236;6.506;2022-07-06T08:51:42;2.22;;;0.50;;
53034;SDS011;38923;53.236;6.506;2022-07-06T08:54:08;6.35;;;0.50;;
53034;SDS011;38923;53.236;6.506;2022-07-06T08:56:36;6.15;;;0.52;;
53034;SDS011;38923;53.236;6.506;2022-07-06T08:59:02;4.45;;;0.55;;
53034;SDS011;38923;53.236;6.506;2022-07-06T09:01:28;4.47;;;0.52;;
53034;SDS011;38923;53.236;6.506;2022-07-06T09:03:55;6.47;;;0.80;;
53034;SDS011;38923;53.236;6.506;2022-07-06T09:06:24;2.05;;;0.40;;
53034;SDS011;38923;53.236;6.506;2022-07-06T09:08:55;2.55;;;0.57;;
53034;SDS011;38923;53.236;6.506;2022-07-06T09:11:22;4.47;;;0.50;;
53034;SDS011;38923;53.236;6.506;2022-07-06T09:13:49;5.45;;;0.65;;
53034;SDS011;38923;53.236;6.506;2022-07-06T09:16:16;4.30;;;0.40;;
53034;SDS011;38923;53.236;6.506;2022-07-06T09:18:46;3.42;;;0.60;;
53034;SDS011;38923;53.236;6.506;2022-07-06T09:21:19;3.95;;;0.73;;
53034;SDS011;38923;53.236;6.506;2022-07-06T09:23:57;4.72;;;0.50;;
53034;SDS011;38923;53.236;6.506;2022-07-06T09:26:25;2.55;;;0.60;;
53034;SDS011;38923;53.236;6.506;2022-07-06T09:28:52;8.25;;;0.70;;
53034;SDS011;38923;53.236;6.506;2022-07-06T09:31:20;4.78;;;0.60;;
53034;SDS011;38923;53.236;6.506;2022-07-06T09:33:53;4.78;;;0.43;;
53034;SDS011;38923;53.236;6.506;2022-07-06T09:41:52;5.68;;;0.47;;
53034;SDS011;38923;53.236;6.506;2022-07-06T09:44:29;5.07;;;0.60;;
53034;SDS011;38923;53.236;6.506;2022-07-06T09:46:57;3.30;;;0.40;;
53034;SDS011;38923;53.236;6.506;2022-07-06T09:49:24;5.13;;;0.57;;
53034;SDS011;38923;53.236;6.506;2022-07-06T09:51:53;1.92;;;0.40;;
53034;SDS011;38923;53.236;6.506;2022-07-06T09:54:21;4.43;;;0.50;;
53034;SDS011;38923;53.236;6.506;2022-07-06T09:56:48;3.60;;;0.52;;
53034;SDS011;38923;53.236;6.506;2022-07-06T09:59:22;3.78;;;0.50;;
53034;SDS011;38923;53.236;6.506;2022-07-06T10:01:53;6.05;;;0.50;;
53034;SDS011;38923;53.236;6.506;2022-07-06T10:04:20;2.55;;;0.70;;
53034;SDS011;38923;53.236;6.506;2022-07-06T10:06:47;5.03;;;0.60;;
53034;SDS011;38923;53.236;6.506;2022-07-06T10:09:13;2.55;;;0.40;;
53034;SDS011;38923;53.236;6.506;2022-07-06T10:11:40;3.30;;;0.50;;
53034;SDS011;38923;53.236;6.506;2022-07-06T10:14:10;2.05;;;0.40;;
53034;SDS011;38923;53.236;6.506;2022-07-06T10:16:39;4.78;;;0.60;;
53034;SDS011;38923;53.236;6.506;2022-07-06T10:19:06;4.07;;;0.50;;
53034;SDS011;38923;53.236;6.506;2022-07-06T10:21:35;3.53;;;0.45;;
53034;SDS011;38923;53.236;6.506;2022-07-06T10:24:02;3.25;;;0.90;;
53034;SDS011;38923;53.236;6.506;2022-07-06T10:26:29;2.50;;;0.50;;
53034;SDS011;38923;53.236;6.506;2022-07-06T10:29:01;3.85;;;0.50;;
53034;SDS011;38923;53.236;6.506;2022-07-06T10:31:27;3.28;;;0.70;;
53034;SDS011;38923;53.236;6.506;2022-07-06T10:33:57;6.57;;;0.60;;
53034;SDS011;38923;53.236;6.506;2022-07-06T10:36:27;4.35;;;0.65;;
53034;SDS011;38923;53.236;6.506;2022-07-06T10:38:53;4.70;;;0.70;;
53034;SDS011;38923;53.236;6.506;2022-07-06T10:41:32;3.53;;;0.40;;
53034;SDS011;38923;53.236;6.506;2022-07-06T10:44:18;3.50;;;0.60;;
53034;SDS011;38923;53.236;6.506;2022-07-06T10:47:04;4.22;;;0.57;;
53034;SDS011;38923;53.236;6.506;2022-07-06T10:49:30;3.30;;;0.43;;
53034;SDS011;38923;53.236;6.506;2022-07-06T10:51:56;2.13;;;0.40;;
53034;SDS011;38923;53.236;6.506;2022-07-06T10:54:22;5.43;;;0.80;;
53034;SDS011;38923;53.236;6.506;2022-07-06T10:56:49;2.97;;;0.45;;
53034;SDS011;38923;53.236;6.506;2022-07-06T11:02:10;2.80;;;0.38;;
53034;SDS011;38923;53.236;6.506;2022-07-06T11:04:45;1.67;;;0.82;;
53034;SDS011;38923;53.236;6.506;2022-07-06T11:07:16;2.50;;;0.40;;
53034;SDS011;38923;53.236;6.506;2022-07-06T11:09:53;1.70;;;0.47;;
53034;SDS011;38923;53.236;6.506;2022-07-06T11:12:20;4.55;;;0.50;;
53034;SDS011;38923;53.236;6.506;2022-07-06T11:14:48;1.55;;;0.25;;
53034;SDS011;38923;53.236;6.506;2022-07-06T11:17:15;5.75;;;0.68;;
53034;SDS011;38923;53.236;6.506;2022-07-06T11:22:37;3.15;;;0.60;;
53034;SDS011;38923;53.236;6.506;2022-07-06T11:25:06;4.82;;;0.50;;
53034;SDS011;38923;53.236;6.506;2022-07-06T11:27:36;3.88;;;0.50;;
53034;SDS011;38923;53.236;6.506;2022-07-06T11:30:02;2.33;;;0.38;;
53034;SDS011;38923;53.236;6.506;2022-07-06T11:32:31;3.42;;;0.40;;
53034;SDS011;38923;53.236;6.506;2022-07-06T11:34:58;3.30;;;0.32;;
53034;SDS011;38923;53.236;6.506;2022-07-06T11:37:23;1.98;;;0.32;;
53034;SDS011;38923;53.236;6.506;2022-07-06T11:39:50;1.27;;;0.40;;
53034;SDS011;38923;53.236;6.506;2022-07-06T11:42:17;2.63;;;0.55;;
53034;SDS011;38923;53.236;6.506;2022-07-06T11:44:43;2.30;;;0.52;;
53034;SDS011;38923;53.236;6.506;2022-07-06T11:47:10;6.35;;;0.50;;
53034;SDS011;38923;53.236;6.506;2022-07-06T11:49:37;3.17;;;0.85;;
53034;SDS011;38923;53.236;6.506;2022-07-06T11:52:05;1.55;;;0.45;;
53034;SDS011;38923;53.236;6.506;2022-07-06T11:54:32;5.18;;;1.10;;
53034;SDS011;38923;53.236;6.506;2022-07-06T11:56:58;2.30;;;0.50;;
53034;SDS011;38923;53.236;6.506;2022-07-06T11:59:29;2.28;;;0.40;;
53034;SDS011;38923;53.236;6.506;2022-07-06T12:04:43;4.20;;;0.82;;
53034;SDS011;38923;53.236;6.506;2022-07-06T12:07:10;3.67;;;0.57;;
53034;SDS011;38923;53.236;6.506;2022-07-06T12:09:39;4.05;;;0.68;;
53034;SDS011;38923;53.236;6.506;2022-07-06T12:12:06;3.85;;;0.40;;
53034;SDS011;38923;53.236;6.506;2022-07-06T12:14:34;4.35;;;0.60;;
53034;SDS011;38923;53.236;6.506;2022-07-06T12:17:08;4.97;;;0.40;;
53034;SDS011;38923;53.236;6.506;2022-07-06T12:19:36;3.40;;;0.68;;
53034;SDS011;38923;53.236;6.506;2022-07-06T12:22:03;5.63;;;0.38;;
53034;SDS011;38923;53.236;6.506;2022-07-06T12:24:30;5.45;;;0.40;;
53034;SDS011;38923;53.236;6.506;2022-07-06T12:26:57;4.13;;;0.60;;
53034;SDS011;38923;53.236;6.506;2022-07-06T12:29:24;2.60;;;0.40;;
53034;SDS011;38923;53.236;6.506;2022-07-06T12:31:54;3.65;;;0.60;;
53034;SDS011;38923;53.236;6.506;2022-07-06T12:34:25;2.80;;;0.50;;
53034;SDS011;38923;53.236;6.506;2022-07-06T12:36:57;3.90;;;0.60;;
53034;SDS011;38923;53.236;6.506;2022-07-06T12:39:27;4.38;;;0.50;;
53034;SDS011;38923;53.236;6.506;2022-07-06T12:41:54;4.72;;;0.60;;
53034;SDS011;38923;53.236;6.506;2022-07-06T12:44:24;1.85;;;0.28;;
53034;SDS011;38923;53.236;6.506;2022-07-06T12:47:04;1.92;;;0.40;;
53034;SDS011;38923;53.236;6.506;2022-07-06T12:49:31;7.03;;;0.90;;
53034;SDS011;38923;53.236;6.506;2022-07-06T12:51:59;2.58;;;0.43;;
53034;SDS011;38923;53.236;6.506;2022-07-06T12:54:29;2.20;;;0.43;;
53034;SDS011;38923;53.236;6.506;2022-07-06T12:59:46;3.92;;;0.70;;
53034;SDS011;38923;53.236;6.506;2022-07-06T13:05:07;2.92;;;0.50;;
53034;SDS011;38923;53.236;6.506;2022-07-06T13:07:38;2.75;;;0.40;;
53034;SDS011;38923;53.236;6.506;2022-07-06T13:10:10;3.55;;;0.57;;
53034;SDS011;38923;53.236;6.506;2022-07-06T13:12:37;5.20;;;0.68;;
53034;SDS011;38923;53.236;6.506;2022-07-06T13:15:04;1.50;;;0.35;;
53034;SDS011;38923;53.236;6.506;2022-07-06T13:17:31;3.10;;;0.68;;
53034;SDS011;38923;53.236;6.506;2022-07-06T13:19:57;2.22;;;0.50;;
53034;SDS011;38923;53.236;6.506;2022-07-06T13:22:23;1.80;;;0.47;;
53034;SDS011;38923;53.236;6.506;2022-07-06T13:24:49;2.05;;;0.60;;
53034;SDS011;38923;53.236;6.506;2022-07-06T13:27:15;2.00;;;0.55;;
53034;SDS011;38923;53.236;6.506;2022-07-06T13:29:41;1.85;;;0.45;;
53034;SDS011;38923;53.236;6.506;2022-07-06T13:32:07;4.43;;;0.60;;
53034;SDS011;38923;53.236;6.506;2022-07-06T13:34:33;4.63;;;0.60;;
53034;SDS011;38923;53.236;6.506;2022-07-06T13:37:00;2.38;;;0.77;;
53034;SDS011;38923;53.236;6.506;2022-07-06T13:39:27;3.92;;;0.60;;
53034;SDS011;38923;53.236;6.506;2022-07-06T13:41:53;7.65;;;0.60;;
53034;SDS011;38923;53.236;6.506;2022-07-06T13:44:19;4.28;;;0.60;;
53034;SDS011;38923;53.236;6.506;2022-07-06T13:46:46;2.38;;;0.47;;
53034;SDS011;38923;53.236;6.506;2022-07-06T13:49:11;4.20;;;0.43;;
53034;SDS011;38923;53.236;6.506;2022-07-06T13:51:37;2.20;;;0.45;;
53034;SDS011;38923;53.236;6.506;2022-07-06T13:54:03;8.85;;;0.60;;
53034;SDS011;38923;53.236;6.506;2022-07-06T13:56:29;3.10;;;0.60;;
53034;SDS011;38923;53.236;6.506;2022-07-06T13:58:55;2.33;;;0.52;;
53034;SDS011;38923;53.236;6.506;2022-07-06T14:01:21;2.05;;;0.45;;
53034;SDS011;38923;53.236;6.506;2022-07-06T14:03:47;2.88;;;0.70;;
53034;SDS011;38923;53.236;6.506;2022-07-06T14:06:13;3.08;;;0.50;;
53034;SDS011;38923;53.236;6.506;2022-07-06T14:08:41;7.97;;;1.02;;
53034;SDS011;38923;53.236;6.506;2022-07-06T14:11:07;4.43;;;0.98;;
53034;SDS011;38923;53.236;6.506;2022-07-06T14:13:34;3.45;;;0.45;;
53034;SDS011;38923;53.236;6.506;2022-07-06T14:16:01;2.55;;;0.60;;
53034;SDS011;38923;53.236;6.506;2022-07-06T14:18:27;2.30;;;0.80;;
53034;SDS011;38923;53.236;6.506;2022-07-06T14:20:53;2.65;;;0.68;;
53034;SDS011;38923;53.236;6.506;2022-07-06T14:23:20;3.78;;;0.80;;
53034;SDS011;38923;53.236;6.506;2022-07-06T14:25:47;3.53;;;0.77;;
53034;SDS011;38923;53.236;6.506;2022-07-06T14:28:13;3.60;;;0.75;;
53034;SDS011;38923;53.236;6.506;2022-07-06T14:30:40;3.22;;;0.88;;
53034;SDS011;38923;53.236;6.506;2022-07-06T14:33:07;2.30;;;0.60;;
53034;SDS011;38923;53.236;6.506;2022-07-06T14:35:38;2.97;;;0.70;;
53034;SDS011;38923;53.236;6.506;2022-07-06T14:38:05;2.72;;;0.98;;
53034;SDS011;38923;53.236;6.506;2022-07-06T14:40:32;2.08;;;0.70;;
53034;SDS011;38923;53.236;6.506;2022-07-06T14:42:59;2.83;;;0.82;;
53034;SDS011;38923;53.236;6.506;2022-07-06T14:45:25;2.72;;;0.70;;
53034;SDS011;38923;53.236;6.506;2022-07-06T14:47:51;4.75;;;0.88;;
53034;SDS011;38923;53.236;6.506;2022-07-06T14:50:17;9.20;;;1.42;;
53034;SDS011;38923;53.236;6.506;2022-07-06T14:52:43;5.70;;;1.30;;
53034;SDS011;38923;53.236;6.506;2022-07-06T14:55:09;6.95;;;1.65;;
53034;SDS011;38923;53.236;6.506;2022-07-06T14:57:35;7.13;;;1.60;;
53034;SDS011;38923;53.236;6.506;2022-07-06T15:00:02;4.68;;;1.63;;
53034;SDS011;38923;53.236;6.506;2022-07-06T15:02:30;5.07;;;1.75;;
53034;SDS011;38923;53.236;6.506;2022-07-06T15:04:55;5.85;;;1.58;;
53034;SDS011;38923;53.236;6.506;2022-07-06T15:07:21;4.78;;;1.67;;
53034;SDS011;38923;53.236;6.506;2022-07-06T15:09:47;6.38;;;1.52;;
53034;SDS011;38923;53.236;6.506;2022-07-06T15:12:13;3.90;;;1.45;;
53034;SDS011;38923;53.236;6.506;2022-07-06T15:14:39;4.10;;;1.05;;
53034;SDS011;38923;53.236;6.506;2022-07-06T15:17:05;5.03;;;1.70;;
53034;SDS011;38923;53.236;6.506;2022-07-06T15:19:31;6.97;;;1.50;;
53034;SDS011;38923;53.236;6.506;2022-07-06T15:21:56;3.40;;;1.08;;
53034;SDS011;38923;53.236;6.506;2022-07-06T15:24:22;4.60;;;1.23;;